Time;durP1;ratioP1;P1;durP2;ratioP2;P2;SDS_P1;SDS_P2;PMS_P1;PMS_P2;Temp;Humidity;BMP_temperature;BMP_pressure;BME280_temperature;BME280_humidity;BME280_pressure;Samples;Min_cycle;Max_cycle;Signal;HPM_P1;HPM_P2
2022/09/30 00:00:37;;;;;;;6.37;3.40;;;;;;;18.67;78.09;94327.41;4977443;28;20288;-79
2022/09/30 00:03:04;;;;;;;4.33;3.47;;;;;;;18.64;78.03;94320.81;4977257;28;20197;-78
2022/09/30 00:05:30;;;;;;;3.53;3.23;;;;;;;18.62;78.06;94328.00;4976972;28;20197;-79
2022/09/30 00:07:59;;;;;;;3.53;3.23;;;;;;;18.61;78.07;94330.75;4976939;28;20197;-78
2022/09/30 00:10:25;;;;;;;6.30;3.60;;;;;;;18.59;78.16;94327.56;4977389;28;20185;-78
2022/09/30 00:12:52;;;;;;;4.23;3.07;;;;;;;18.58;78.31;94326.00;4976180;28;20281;-78
2022/09/30 00:15:20;;;;;;;5.20;2.93;;;;;;;18.55;78.10;94315.00;4976884;28;20196;-80
2022/09/30 00:17:47;;;;;;;3.33;3.10;;;;;;;18.52;78.14;94319.78;4976443;28;20217;-78
2022/09/30 00:20:14;;;;;;;3.37;3.03;;;;;;;18.52;78.05;94317.19;4975980;28;20204;-78
2022/09/30 00:22:43;;;;;;;4.70;3.30;;;;;;;18.50;78.13;94325.16;4977380;28;20380;-79
2022/09/30 00:25:19;;;;;;;3.60;3.13;;;;;;;18.47;78.19;94338.50;4977050;28;20196;-79
2022/09/30 00:27:49;;;;;;;3.37;3.07;;;;;;;18.45;78.27;94337.91;4978059;28;20181;-78
2022/09/30 00:30:16;;;;;;;3.73;3.17;;;;;;;18.43;78.17;94337.28;4976591;28;20220;-78
2022/09/30 00:32:43;;;;;;;4.27;3.87;;;;;;;18.38;78.13;94331.88;4976457;28;20200;-79
2022/09/30 00:35:10;;;;;;;3.43;3.13;;;;;;;18.36;78.29;94320.94;4976615;28;20656;-78
2022/09/30 00:37:37;;;;;;;3.60;3.27;;;;;;;18.39;78.27;94327.50;4976499;28;20217;-79
2022/09/30 00:40:04;;;;;;;3.83;3.53;;;;;;;18.36;78.21;94325.31;4976831;28;20601;-78
2022/09/30 00:42:32;;;;;;;5.27;3.30;;;;;;;18.26;78.34;94310.13;4976778;28;20220;-78
2022/09/30 00:45:05;;;;;;;3.63;3.33;;;;;;;18.35;78.22;94328.88;4979043;28;20192;-78
2022/09/30 00:47:45;;;;;;;5.87;3.63;;;;;;;18.32;78.41;94309.38;4979840;28;20177;-79
2022/09/30 00:50:20;;;;;;;3.93;3.10;;;;;;;18.30;78.51;94321.72;4977043;28;20204;-78
2022/09/30 00:52:52;;;;;;;3.90;3.60;;;;;;;18.25;78.54;94308.56;4978163;28;20571;-79
2022/09/30 00:55:27;;;;;;;5.43;3.63;;;;;;;18.24;78.54;94314.72;4977029;28;20191;-79
2022/09/30 00:57:57;;;;;;;6.20;3.57;;;;;;;18.19;78.70;94311.94;4977024;28;20216;-79
2022/09/30 01:00:24;;;;;;;4.80;3.80;;;;;;;18.24;78.63;94312.13;4976934;28;20212;-77
2022/09/30 01:02:53;;;;;;;5.60;3.23;;;;;;;18.20;78.77;94316.09;4988557;28;20189;-77
2022/09/30 01:05:21;;;;;;;3.50;3.20;;;;;;;18.22;78.72;94320.09;4989888;28;20215;-76
2022/09/30 01:07:49;;;;;;;5.37;3.53;;;;;;;17.99;78.81;94289.34;4990797;28;20652;-79
2022/09/30 01:10:16;;;;;;;5.40;3.70;;;;;;;18.20;78.66;94313.50;4988367;28;20193;-79
2022/09/30 01:12:43;;;;;;;6.30;3.27;;;;;;;18.13;78.68;94313.47;4985284;28;20249;-79
2022/09/30 01:15:12;;;;;;;4.00;3.27;;;;;;;18.17;78.76;94319.06;4988270;28;20196;-79
2022/09/30 01:17:50;;;;;;;4.17;3.50;;;;;;;18.16;78.81;94314.88;4983405;28;20254;-78
2022/09/30 01:20:41;;;;;;;3.50;3.20;;;;;;;18.13;79.03;94315.28;4979796;28;20280;-78
2022/09/30 01:23:43;;;;;;;4.13;3.83;;;;;;;18.11;78.96;94325.03;4978617;28;20200;-78
2022/09/30 01:26:37;;;;;;;4.77;3.43;;;;;;;18.08;78.96;94325.41;4976595;28;20185;-77
2022/09/30 01:29:39;;;;;;;3.73;3.27;;;;;;;18.07;79.02;94340.13;4976105;28;20194;-79
2022/09/30 01:32:16;;;;;;;5.30;3.60;;;;;;;18.05;79.00;94334.38;4859836;29;20213;-78
2022/09/30 01:34:58;;;;;;;5.33;3.20;;;;;;;18.04;78.77;94325.00;4858915;29;20193;-79
2022/09/30 01:37:37;;;;;;;7.13;3.27;;;;;;;18.04;79.03;94325.00;4859381;29;20280;-78
2022/09/30 01:40:12;;;;;;;3.90;3.50;;;;;;;18.02;78.98;94332.94;4859097;29;20209;-78
2022/09/30 01:42:49;;;;;;;5.97;3.40;;;;;;;18.01;79.07;94320.22;4860631;29;20721;-77
2022/09/30 01:45:20;;;;;;;3.60;3.30;;;;;;;17.99;79.06;94330.75;4859173;29;20189;-78
2022/09/30 01:47:51;;;;;;;7.07;3.70;;;;;;;17.98;79.17;94323.19;4859293;29;20193;-76
2022/09/30 01:50:22;;;;;;;3.73;3.13;;;;;;;17.96;79.13;94328.56;4859705;29;20233;-77
2022/09/30 01:52:53;;;;;;;4.37;3.40;;;;;;;17.94;79.26;94327.13;4864028;29;20188;-77
2022/09/30 01:55:26;;;;;;;4.00;3.23;;;;;;;17.93;79.17;94325.56;4863517;29;20208;-77
2022/09/30 01:57:59;;;;;;;4.63;3.27;;;;;;;17.93;79.26;94328.94;4863163;29;20724;-79
2022/09/30 02:00:26;;;;;;;4.43;3.13;;;;;;;17.71;79.00;94297.16;4864074;29;20695;-77
2022/09/30 02:03:00;;;;;;;6.23;3.80;;;;;;;17.94;78.91;94330.53;4866085;29;20786;-77
2022/09/30 02:05:36;;;;;;;3.47;3.17;;;;;;;17.94;79.04;94333.09;4863717;29;20305;-78
2022/09/30 02:08:08;;;;;;;3.47;3.17;;;;;;;17.95;79.09;94326.94;4869068;29;20189;-77
2022/09/30 02:10:43;;;;;;;4.87;3.30;;;;;;;17.94;79.06;94325.34;4978230;28;20239;-77
2022/09/30 02:13:19;;;;;;;5.70;3.67;;;;;;;17.88;78.93;94327.91;4979329;28;20176;-77
2022/09/30 02:15:51;;;;;;;3.70;3.40;;;;;;;17.93;79.08;94333.31;4978850;28;20202;-78
2022/09/30 02:18:26;;;;;;;5.47;3.40;;;;;;;17.94;79.03;94337.50;4978128;28;20335;-78
2022/09/30 02:20:58;;;;;;;3.93;3.60;;;;;;;17.92;78.98;94337.69;4979611;28;20819;-77
2022/09/30 02:23:29;;;;;;;3.73;3.43;;;;;;;17.93;79.12;94344.47;4978582;28;20178;-77
2022/09/30 02:26:05;;;;;;;3.63;3.33;;;;;;;17.91;79.16;94346.41;4978340;28;20200;-78
2022/09/30 02:28:35;;;;;;;4.83;3.53;;;;;;;17.89;79.08;94348.41;4978592;28;20656;-77
2022/09/30 02:31:04;;;;;;;6.70;3.17;;;;;;;17.81;79.32;94338.22;4980302;28;20181;-78
2022/09/30 02:33:37;;;;;;;3.70;3.30;;;;;;;17.86;79.21;94348.78;4979700;28;20249;-77
2022/09/30 02:36:10;;;;;;;4.00;3.63;;;;;;;17.64;79.04;94311.03;4978589;28;20193;-77
2022/09/30 02:38:41;;;;;;;4.40;3.00;;;;;;;17.77;79.10;94344.75;4978340;28;20233;-78
2022/09/30 02:41:12;;;;;;;4.73;3.30;;;;;;;17.80;79.14;94334.03;4978421;28;20185;-77
2022/09/30 02:43:40;;;;;;;4.20;3.57;;;;;;;17.76;79.21;94328.44;4978273;28;20194;-78
2022/09/30 02:46:15;;;;;;;4.30;3.70;;;;;;;17.70;79.14;94330.94;4980078;28;20182;-77
2022/09/30 02:48:48;;;;;;;3.93;3.63;;;;;;;17.73;79.25;94333.16;4978214;28;20669;-78
2022/09/30 02:51:22;;;;;;;3.53;3.23;;;;;;;17.71;79.21;94337.75;4978517;28;20189;-79
2022/09/30 02:53:55;;;;;;;3.60;3.30;;;;;;;17.68;79.28;94344.09;4977986;28;20189;-79
2022/09/30 02:56:27;;;;;;;3.83;3.40;;;;;;;17.68;79.28;94344.09;4978646;28;20181;-77
2022/09/30 02:58:57;;;;;;;3.67;3.37;;;;;;;17.67;79.28;94358.00;4979450;28;21403;-80
2022/09/30 03:01:25;;;;;;;4.07;3.27;;;;;;;17.66;79.24;94353.81;4978930;28;20267;-80
2022/09/30 03:03:57;;;;;;;4.53;3.20;;;;;;;17.45;79.26;94312.53;4976785;28;20201;-79
2022/09/30 03:06:24;;;;;;;6.83;2.93;;;;;;;17.67;79.16;94368.34;4978500;28;20202;-78
2022/09/30 03:08:52;;;;;;;4.03;3.13;;;;;;;17.68;79.04;94361.38;4978114;28;20201;-79
2022/09/30 03:11:22;;;;;;;3.63;3.33;;;;;;;17.70;79.10;94374.91;4978359;28;20252;-78
2022/09/30 03:14:10;;;;;;;9.13;3.57;;;;;;;17.71;79.23;94371.38;4978013;28;20564;-77
2022/09/30 03:16:52;;;;;;;4.10;3.70;;;;;;;17.70;79.27;94364.56;4977470;28;20670;-77
2022/09/30 03:19:37;;;;;;;4.03;3.63;;;;;;;17.73;79.08;94367.59;4978850;28;20209;-78
2022/09/30 03:22:27;;;;;;;4.40;3.03;;;;;;;17.75;79.07;94357.09;4979773;28;20223;-77
2022/09/30 03:25:16;;;;;;;4.77;3.70;;;;;;;17.77;79.10;94363.66;4983364;28;20585;-78
2022/09/30 03:27:58;;;;;;;3.73;3.43;;;;;;;17.77;79.16;94363.66;4993905;28;20197;-79
2022/09/30 03:30:26;;;;;;;5.73;3.80;;;;;;;17.77;79.04;94355.09;4993344;28;20197;-78
2022/09/30 03:33:06;;;;;;;5.80;3.93;;;;;;;17.80;79.14;94365.88;4981086;28;20187;-77
2022/09/30 03:35:43;;;;;;;5.70;4.57;;;;;;;17.82;79.07;94362.28;4982013;28;20342;-79
2022/09/30 03:38:15;;;;;;;6.93;4.27;;;;;;;17.86;79.11;94374.66;4979143;28;20228;-78
2022/09/30 03:40:48;;;;;;;9.07;4.17;;;;;;;17.87;79.20;94360.72;4979039;28;20225;-79
2022/09/30 03:43:21;;;;;;;5.30;4.60;;;;;;;17.89;79.12;94356.19;4978885;28;20197;-80
2022/09/30 03:45:55;;;;;;;5.30;4.37;;;;;;;17.89;79.30;94363.94;4977992;28;20657;-77
2022/09/30 03:48:24;;;;;;;5.30;4.80;;;;;;;17.88;79.11;94388.22;4979303;28;20212;-78
2022/09/30 03:50:53;;;;;;;5.90;5.30;;;;;;;17.92;79.35;94401.53;4977741;28;20221;-77
2022/09/30 03:53:20;;;;;;;8.50;5.30;;;;;;;17.94;79.28;94400.38;4977112;28;20181;-78
2022/09/30 03:55:49;;;;;;;9.90;5.73;;;;;;;17.95;79.42;94396.78;4977046;28;20198;-78
2022/09/30 03:58:18;;;;;;;7.07;5.63;;;;;;;17.87;79.41;94378.03;4979659;28;20204;-78
2022/09/30 04:00:48;;;;;;;6.77;6.10;;;;;;;17.97;79.47;94389.66;4979550;28;20220;-80
2022/09/30 04:03:16;;;;;;;6.37;5.77;;;;;;;17.98;79.43;94391.25;4979595;28;20202;-78
2022/09/30 04:05:43;;;;;;;7.00;5.20;;;;;;;17.99;79.48;94392.84;4977874;28;20186;-79
2022/09/30 04:08:11;;;;;;;7.20;5.77;;;;;;;18.00;79.51;94380.69;4977849;28;20217;-78
2022/09/30 04:10:40;;;;;;;7.07;5.40;;;;;;;18.01;79.63;94384.91;4977881;28;20215;-78
2022/09/30 04:13:07;;;;;;;6.90;5.60;;;;;;;18.02;79.56;94384.69;4978531;28;20189;-78
2022/09/30 04:15:35;;;;;;;8.53;6.17;;;;;;;17.96;79.54;94375.13;4980066;28;20208;-80
2022/09/30 04:18:02;;;;;;;7.47;5.90;;;;;;;18.02;79.60;94387.28;4972829;28;20296;-78
2022/09/30 04:20:29;;;;;;;6.83;6.13;;;;;;;18.04;79.52;94393.06;4973751;28;20225;-79
2022/09/30 04:22:58;;;;;;;7.47;6.67;;;;;;;18.06;79.56;94390.31;4977849;28;20187;-78
2022/09/30 04:25:27;;;;;;;8.03;6.03;;;;;;;18.07;79.68;94363.44;4984934;28;20183;-78
2022/09/30 04:27:54;;;;;;;8.53;6.27;;;;;;;18.05;79.50;94366.22;4988682;28;20193;-78
2022/09/30 04:30:21;;;;;;;6.63;5.83;;;;;;;18.02;79.46;94382.13;4989902;28;20656;-77
2022/09/30 04:32:48;;;;;;;7.63;6.30;;;;;;;18.07;79.65;94396.28;4990856;28;20196;-75
2022/09/30 04:35:15;;;;;;;8.17;6.80;;;;;;;18.04;79.72;94395.66;4981880;28;20248;-79
2022/09/30 04:37:43;;;;;;;7.53;6.73;;;;;;;18.10;79.76;94403.66;4973706;28;20236;-76
2022/09/30 04:40:10;;;;;;;8.17;4.87;;;;;;;18.19;89.26;94389.56;4990319;28;20217;-77
2022/09/30 04:42:39;;;;;;;9.33;6.23;;;;;;;18.38;89.96;94391.44;4990442;28;20661;-77
2022/09/30 04:45:08;;;;;;;10.37;8.63;;;;;;;18.44;87.95;94395.88;4987782;28;20744;-78
2022/09/30 04:47:35;;;;;;;11.07;8.10;;;;;;;18.46;87.25;94401.63;4988878;28;20193;-73
2022/09/30 04:50:03;;;;;;;14.53;9.50;;;;;;;18.48;86.60;94412.63;4994411;28;20681;-74
2022/09/30 04:52:29;;;;;;;14.33;9.23;;;;;;;18.48;86.35;94417.78;4993122;28;20189;-75
2022/09/30 04:54:57;;;;;;;11.37;9.73;;;;;;;18.46;86.30;94413.78;4993494;28;20204;-79
2022/09/30 04:57:24;;;;;;;12.60;9.23;;;;;;;18.48;86.27;94427.31;4993393;28;20312;-79
2022/09/30 04:59:53;;;;;;;11.63;9.07;;;;;;;18.46;86.15;94426.72;4992972;28;20702;-78
2022/09/30 05:02:20;;;;;;;11.20;10.00;;;;;;;18.46;86.67;94442.28;4990836;28;20193;-74
2022/09/30 05:04:47;;;;;;;11.70;9.70;;;;;;;18.34;87.00;94404.97;4991372;28;20208;-79
2022/09/30 05:07:14;;;;;;;11.00;9.53;;;;;;;18.36;86.81;94434.06;4990739;28;20660;-79
2022/09/30 05:09:40;;;;;;;10.40;9.20;;;;;;;18.38;86.67;94437.25;4991534;28;20189;-79
2022/09/30 05:12:07;;;;;;;11.17;9.67;;;;;;;18.36;86.74;94428.88;4990759;28;20186;-78
2022/09/30 05:14:34;;;;;;;12.37;9.60;;;;;;;18.30;86.85;94405.34;4993317;28;20208;-80
2022/09/30 05:17:03;;;;;;;11.57;9.30;;;;;;;18.42;86.94;94435.88;4993560;28;20197;-83
2022/09/30 05:19:30;;;;;;;11.10;9.57;;;;;;;18.44;87.03;94458.00;4993677;28;20700;-77
2022/09/30 05:21:56;;;;;;;12.47;9.07;;;;;;;18.46;86.89;94453.44;4994786;28;20244;-78
2022/09/30 05:24:23;;;;;;;11.90;9.97;;;;;;;18.50;87.01;94459.03;4992512;28;20197;-78
2022/09/30 05:26:50;;;;;;;15.53;11.07;;;;;;;18.52;86.94;94451.84;4994012;28;20196;-79
2022/09/30 05:29:17;;;;;;;12.27;10.43;;;;;;;18.53;86.94;94438.72;4984006;28;20194;-75
2022/09/30 05:31:44;;;;;;;16.57;10.57;;;;;;;18.57;86.98;94446.91;4978558;28;20190;-80
2022/09/30 05:34:15;;;;;;;14.73;11.07;;;;;;;18.61;86.98;94450.72;4980044;28;20307;-78
2022/09/30 05:36:43;;;;;;;15.23;11.40;;;;;;;18.65;86.94;94464.06;4994386;28;20235;-80
2022/09/30 05:39:10;;;;;;;12.67;10.53;;;;;;;18.69;86.74;94462.69;4992431;28;20225;-77
2022/09/30 05:41:38;;;;;;;15.50;11.83;;;;;;;18.71;87.11;94474.50;4980717;28;20691;-82
2022/09/30 05:44:07;;;;;;;16.80;12.47;;;;;;;18.68;86.99;94472.25;4974535;28;20186;-75
2022/09/30 05:46:34;;;;;;;22.27;14.00;;;;;;;18.82;86.96;94472.34;4974149;28;20204;-79
2022/09/30 05:49:01;;;;;;;18.70;13.90;;;;;;;18.88;87.00;94463.81;4981104;28;20197;-77
2022/09/30 05:51:30;;;;;;;16.20;13.20;;;;;;;18.98;86.67;94470.19;4990234;28;20219;-80
2022/09/30 05:53:56;;;;;;;16.80;13.53;;;;;;;19.09;86.25;94475.84;4990547;28;20201;-80
2022/09/30 05:56:23;;;;;;;17.13;14.20;;;;;;;19.16;86.04;94479.22;4990637;28;20193;-78
2022/09/30 05:58:50;;;;;;;20.10;13.67;;;;;;;19.19;85.95;94471.84;4992979;28;20200;-77
2022/09/30 06:01:17;;;;;;;15.63;13.77;;;;;;;19.24;85.70;94479.84;4992284;28;20224;-80
2022/09/30 06:03:45;;;;;;;22.13;14.33;;;;;;;19.26;85.67;94483.06;4993076;28;20196;-78
2022/09/30 06:06:13;;;;;;;19.20;13.97;;;;;;;19.42;85.24;94486.25;4990644;28;20200;-80
2022/09/30 06:08:42;;;;;;;19.07;14.43;;;;;;;19.51;84.96;94487.66;4992756;28;20197;-82
2022/09/30 06:11:11;;;;;;;21.53;15.50;;;;;;;19.60;84.66;94481.28;4990691;28;20228;-78
2022/09/30 06:13:39;;;;;;;18.67;14.13;;;;;;;19.71;84.28;94487.72;4992272;28;20263;-83
2022/09/30 06:16:07;;;;;;;19.97;15.03;;;;;;;19.77;83.89;94489.50;4992703;28;20197;-82
2022/09/30 06:18:34;;;;;;;18.57;14.60;;;;;;;19.78;83.81;94478.16;4991217;28;20197;-81
2022/09/30 06:21:03;;;;;;;21.40;14.63;;;;;;;19.89;83.54;94495.72;4992240;28;20268;-80
2022/09/30 06:23:33;;;;;;;18.27;15.10;;;;;;;19.93;83.35;94496.91;4990400;28;20201;-78
2022/09/30 06:26:04;;;;;;;20.40;14.40;;;;;;;19.98;83.12;94506.69;4991033;28;20268;-77
2022/09/30 06:28:34;;;;;;;16.97;13.50;;;;;;;20.01;82.69;94501.09;4991605;28;20284;-80
2022/09/30 06:31:01;;;;;;;20.47;15.07;;;;;;;20.02;82.80;94511.28;4976081;28;20533;-79
2022/09/30 06:33:28;;;;;;;22.60;16.47;;;;;;;19.99;82.77;94497.91;4993083;28;20263;-83
2022/09/30 06:35:55;;;;;;;22.57;16.57;;;;;;;19.98;82.79;94512.66;4993007;28;20193;-82
2022/09/30 06:38:24;;;;;;;24.80;17.50;;;;;;;19.95;82.54;94523.47;4992910;28;20231;-79
2022/09/30 06:40:51;;;;;;;25.17;16.30;;;;;;;19.99;82.32;94505.69;4997723;28;20239;-77
2022/09/30 06:43:22;;;;;;;20.40;16.47;;;;;;;20.03;82.10;94531.06;4985229;28;20208;-77
2022/09/30 06:45:50;;;;;;;24.15;15.63;;;;;;;20.12;81.79;94533.44;4993564;28;20200;-78
2022/09/30 06:48:19;;;;;;;24.63;15.13;;;;;;;20.13;81.88;94519.47;4992645;28;20197;-79
2022/09/30 06:50:46;;;;;;;21.73;16.27;;;;;;;20.22;81.63;94544.25;4992376;28;20196;-80
2022/09/30 06:53:13;;;;;;;24.00;14.87;;;;;;;20.26;81.62;94546.22;4992128;28;20189;-80
2022/09/30 06:55:40;;;;;;;22.10;16.33;;;;;;;20.28;81.47;94557.22;4992226;28;20211;-79
2022/09/30 06:58:10;;;;;;;22.23;16.27;;;;;;;20.33;81.58;94564.38;4992121;28;20644;-79
2022/09/30 07:00:38;;;;;;;24.73;15.53;;;;;;;20.42;81.08;94555.41;4993061;28;20229;-80
2022/09/30 07:03:08;;;;;;;21.47;15.90;;;;;;;20.53;81.00;94562.63;4992485;28;20200;-80
2022/09/30 07:05:35;;;;;;;23.80;16.33;;;;;;;20.64;80.64;94555.19;4992539;28;20567;-78
2022/09/30 07:08:03;;;;;;;23.33;15.68;;;;;;;20.79;80.20;94553.16;4992017;28;20197;-78
2022/09/30 07:10:29;;;;;;;22.40;16.13;;;;;;;20.92;79.89;94575.72;4992278;28;20195;-82
2022/09/30 07:12:56;;;;;;;21.60;17.33;;;;;;;21.01;79.39;94567.50;4991909;28;20189;-78
2022/09/30 07:15:23;;;;;;;25.98;16.63;;;;;;;21.23;79.02;94569.81;4992414;28;20189;-80
2022/09/30 07:17:52;;;;;;;25.52;19.08;;;;;;;21.38;78.46;94565.19;4991903;28;20211;-76
2022/09/30 07:20:19;;;;;;;24.27;18.30;;;;;;;21.48;78.24;94570.75;4991980;28;20221;-79
2022/09/30 07:22:46;;;;;;;24.50;17.92;;;;;;;21.63;77.92;94574.88;4991901;28;20205;-80
2022/09/30 07:25:14;;;;;;;24.45;19.02;;;;;;;21.77;77.52;94587.59;4992108;28;20259;-78
2022/09/30 07:27:41;;;;;;;24.55;18.42;;;;;;;21.84;76.89;94576.34;4992301;28;20192;-77
2022/09/30 07:30:09;;;;;;;29.92;18.92;;;;;;;22.08;76.36;94593.81;4991977;28;20193;-78
2022/09/30 07:32:36;;;;;;;28.67;19.52;;;;;;;22.25;75.95;94588.94;4992055;28;20247;-78
2022/09/30 07:35:06;;;;;;;26.88;20.95;;;;;;;22.37;75.86;94592.44;4991961;28;20195;-78
2022/09/30 07:37:34;;;;;;;22.50;19.52;;;;;;;22.53;75.07;94591.88;4991868;28;20267;-79
2022/09/30 07:40:04;;;;;;;25.88;21.38;;;;;;;22.68;74.70;94582.94;4991351;28;20304;-77
2022/09/30 07:42:31;;;;;;;24.40;20.42;;;;;;;22.92;74.49;94586.53;4991701;28;20293;-80
2022/09/30 07:44:58;;;;;;;32.63;21.85;;;;;;;23.22;74.16;94586.59;4991334;28;20197;-78
2022/09/30 07:47:25;;;;;;;23.83;20.30;;;;;;;23.52;74.59;94582.22;4991337;28;20189;-77
2022/09/30 07:49:52;;;;;;;22.63;18.60;;;;;;;23.97;73.96;94584.47;4991596;28;20568;-79
2022/09/30 07:52:20;;;;;;;21.27;17.30;;;;;;;24.43;73.13;94584.78;4992492;28;20185;-79
2022/09/30 07:54:47;;;;;;;16.77;14.38;;;;;;;24.85;71.87;94587.31;4991305;28;20272;-79
2022/09/30 07:57:14;;;;;;;18.38;14.05;;;;;;;25.26;70.50;94587.16;4994558;28;20197;-78
2022/09/30 07:59:42;;;;;;;15.95;13.48;;;;;;;25.68;68.65;94588.72;4995374;28;20189;-78
2022/09/30 08:02:14;;;;;;;15.43;12.27;;;;;;;26.07;66.96;94594.16;4996713;28;20189;-79
2022/09/30 08:04:41;;;;;;;18.23;12.25;;;;;;;26.46;65.63;94602.94;5005464;28;20193;-76
2022/09/30 08:07:10;;;;;;;14.88;11.90;;;;;;;26.68;64.32;94597.78;5006452;28;20196;-78
2022/09/30 08:09:38;;;;;;;12.77;11.35;;;;;;;27.06;63.19;94610.13;5001682;28;20185;-79
2022/09/30 08:12:05;;;;;;;14.10;11.60;;;;;;;27.38;61.62;94610.31;4999514;28;20193;-79
2022/09/30 08:14:32;;;;;;;15.75;11.55;;;;;;;27.66;60.65;94608.53;5001539;28;20631;-79
2022/09/30 08:16:59;;;;;;;15.30;11.30;;;;;;;27.87;59.83;94601.69;4995950;28;20192;-79
2022/09/30 08:19:27;;;;;;;14.57;11.55;;;;;;;28.12;58.94;94611.66;4995946;28;20252;-78
2022/09/30 08:21:55;;;;;;;12.95;11.30;;;;;;;28.32;58.24;94606.56;4995155;28;20672;-81
2022/09/30 08:24:23;;;;;;;15.10;11.43;;;;;;;28.51;58.05;94617.53;4993442;28;20660;-81
2022/09/30 08:26:51;;;;;;;14.20;10.43;;;;;;;28.71;57.13;94624.78;4991971;28;20200;-79
2022/09/30 08:29:18;;;;;;;12.82;10.65;;;;;;;28.86;56.82;94624.91;4992292;28;20200;-79
2022/09/30 08:31:45;;;;;;;12.23;10.95;;;;;;;28.94;55.96;94615.72;4991441;28;20810;-79
2022/09/30 08:34:12;;;;;;;13.38;10.23;;;;;;;29.09;55.52;94628.22;4991313;28;20204;-77
2022/09/30 08:36:39;;;;;;;11.65;9.80;;;;;;;29.18;55.48;94635.38;4991821;28;20600;-83
2022/09/30 08:39:06;;;;;;;10.25;8.93;;;;;;;29.23;54.91;94626.69;5000109;28;20227;-80
2022/09/30 08:41:52;;;;;;;14.38;9.43;;;;;;;29.34;54.46;94623.09;5003397;28;20216;-78
2022/09/30 08:44:42;;;;;;;11.40;9.02;;;;;;;29.39;53.92;94624.94;4991260;28;20299;-80
2022/09/30 08:47:30;;;;;;;10.75;9.40;;;;;;;29.41;53.76;94636.03;4991024;28;20591;-83
2022/09/30 08:50:08;;;;;;;12.20;8.77;;;;;;;29.42;53.32;94635.78;4988180;28;20548;-79
2022/09/30 08:52:40;;;;;;;12.45;8.95;;;;;;;29.41;53.50;94634.19;4991202;28;20204;-84
2022/09/30 08:55:08;;;;;;;12.93;9.00;;;;;;;29.40;53.18;94634.44;4990746;28;20185;-79
2022/09/30 08:57:39;;;;;;;12.70;8.77;;;;;;;29.38;53.14;94641.81;4990857;28;20251;-85
2022/09/30 09:00:13;;;;;;;11.73;8.88;;;;;;;29.34;53.01;94630.97;4990614;28;20204;-83
2022/09/30 09:02:45;;;;;;;10.55;8.77;;;;;;;29.30;53.03;94637.03;4994842;28;20196;-80
2022/09/30 09:05:21;;;;;;;10.43;8.30;;;;;;;29.25;52.90;94638.59;4995548;28;20201;-81
2022/09/30 09:07:55;;;;;;;13.32;8.60;;;;;;;29.21;52.65;94634.88;4995362;28;20296;-81
2022/09/30 09:10:30;;;;;;;11.48;8.52;;;;;;;29.14;53.19;94646.69;4994869;28;20192;-77
2022/09/30 09:13:04;;;;;;;11.00;8.68;;;;;;;29.06;53.42;94645.34;4995184;28;20228;-83
2022/09/30 09:15:46;;;;;;;16.85;9.18;;;;;;;28.98;53.21;94640.53;4994939;28;20272;-79
2022/09/30 09:18:33;;;;;;;10.20;8.82;;;;;;;28.89;53.50;94647.31;4994931;28;20665;-82
2022/09/30 09:21:14;;;;;;;13.02;8.52;;;;;;;28.71;53.84;94637.94;4994787;28;20271;-77
2022/09/30 09:23:41;;;;;;;10.32;7.93;;;;;;;28.66;53.79;94643.97;4995047;28;20196;-78
2022/09/30 09:26:11;;;;;;;10.90;7.65;;;;;;;28.53;54.30;94647.00;4994332;28;20193;-79
2022/09/30 09:28:43;;;;;;;9.77;8.68;;;;;;;28.46;54.16;94664.88;4994199;28;20193;-79
2022/09/30 09:31:16;;;;;;;9.40;8.38;;;;;;;28.34;54.22;94654.47;4994316;28;20189;-80
2022/09/30 09:33:45;;;;;;;13.77;8.35;;;;;;;28.25;54.58;94653.31;4994289;28;20275;-80
2022/09/30 09:36:25;;;;;;;9.93;9.02;;;;;;;28.16;54.34;94663.50;4994285;28;20664;-80
2022/09/30 09:39:07;;;;;;;9.95;8.25;;;;;;;28.08;54.41;94656.06;4993619;28;20224;-82
2022/09/30 09:41:43;;;;;;;9.80;7.25;;;;;;;28.00;54.74;94654.66;4994452;28;20229;-79
2022/09/30 09:44:19;;;;;;;10.10;8.25;;;;;;;27.92;54.86;94644.56;4996061;28;20214;-78
2022/09/30 09:46:50;;;;;;;10.80;8.18;;;;;;;27.83;54.72;94655.78;4997098;28;20185;-79
2022/09/30 09:49:37;;;;;;;11.77;8.43;;;;;;;27.70;54.72;94641.94;4997372;28;20196;-80
2022/09/30 09:52:48;;;;;;;11.98;8.30;;;;;;;27.67;55.07;94639.78;4997144;28;20232;-78
2022/09/30 09:55:20;;;;;;;10.10;7.55;;;;;;;27.60;55.34;94641.84;4898657;29;20283;-79
2022/09/30 09:57:47;;;;;;;8.98;7.65;;;;;;;27.55;55.28;94643.59;4898339;29;20193;-77
2022/09/30 10:03:27;;;;;;;9.98;7.53;;;;;;;27.45;54.81;94652.94;4898445;29;20260;-79
2022/09/30 10:06:03;;;;;;;8.50;7.03;;;;;;;27.42;55.02;94657.91;4895421;29;20204;-79
2022/09/30 10:08:32;;;;;;;9.70;6.80;;;;;;;27.32;55.14;94642.00;4895424;29;20309;-78
2022/09/30 10:11:06;;;;;;;12.50;7.28;;;;;;;27.34;55.07;94643.34;4895354;29;20208;-79
2022/09/30 10:13:42;;;;;;;8.18;7.25;;;;;;;27.33;55.17;94646.22;4895112;29;20206;-77
2022/09/30 10:16:26;;;;;;;8.70;6.78;;;;;;;27.28;54.91;94644.31;4896043;29;20206;-78
2022/09/30 10:18:54;;;;;;;9.80;7.45;;;;;;;27.24;55.09;94630.06;4895700;29;20197;-79
2022/09/30 10:21:23;;;;;;;8.75;7.30;;;;;;;27.24;55.07;94637.94;4896020;29;20553;-77
2022/09/30 10:23:50;;;;;;;8.73;6.78;;;;;;;27.24;54.71;94636.13;4896718;29;20207;-78
2022/09/30 10:26:19;;;;;;;6.75;6.05;;;;;;;27.11;54.63;94612.06;4898735;29;20203;-77
2022/09/30 10:28:49;;;;;;;9.32;6.90;;;;;;;27.26;54.83;94638.53;4902114;29;20193;-79
2022/09/30 10:31:21;;;;;;;6.82;6.13;;;;;;;27.25;54.89;94621.19;4921554;28;20193;-78
2022/09/30 10:33:53;;;;;;;8.98;5.75;;;;;;;27.24;54.80;94625.63;5000505;28;20192;-77
2022/09/30 10:36:29;;;;;;;8.35;6.45;;;;;;;27.26;54.62;94625.38;4999015;28;20189;-77
2022/09/30 10:39:01;;;;;;;8.52;6.20;;;;;;;27.25;54.48;94626.44;4996597;28;20220;-76
2022/09/30 10:41:32;;;;;;;8.15;5.50;;;;;;;27.27;54.41;94632.22;4996323;28;20217;-81
2022/09/30 10:44:02;;;;;;;9.30;6.65;;;;;;;27.27;54.74;94629.59;4992892;28;20204;-80
2022/09/30 10:46:32;;;;;;;9.70;6.65;;;;;;;27.25;54.77;94629.84;4993299;28;20200;-80
2022/09/30 10:49:01;;;;;;;8.40;6.38;;;;;;;27.27;54.54;94626.97;4993640;28;20197;-80
2022/09/30 10:51:35;;;;;;;6.97;6.22;;;;;;;27.29;54.50;94631.97;4992702;28;20667;-77
2022/09/30 10:54:03;;;;;;;7.68;5.75;;;;;;;27.27;54.63;94624.34;4992444;28;20220;-78
2022/09/30 10:56:40;;;;;;;8.82;5.68;;;;;;;27.28;54.42;94620.69;4993217;28;20189;-80
2022/09/30 10:59:18;;;;;;;6.47;5.47;;;;;;;27.31;54.35;94630.69;4992845;28;20193;-79
2022/09/30 11:01:50;;;;;;;6.65;6.05;;;;;;;27.32;54.31;94634.91;4992721;28;20215;-81
2022/09/30 11:04:26;;;;;;;9.55;6.10;;;;;;;27.30;54.26;94636.22;4993013;28;20200;-80
2022/09/30 11:07:01;;;;;;;11.05;5.57;;;;;;;27.29;53.74;94635.41;4993430;28;20184;-78
2022/09/30 11:09:35;;;;;;;6.30;5.50;;;;;;;27.34;54.03;94645.19;4993015;28;20192;-78
2022/09/30 11:12:09;;;;;;;6.10;5.50;;;;;;;27.34;53.67;94645.19;4992641;28;20216;-80
2022/09/30 11:14:42;;;;;;;6.10;5.50;;;;;;;27.27;53.97;94632.22;4992683;28;20584;-80
2022/09/30 11:17:22;;;;;;;6.07;5.47;;;;;;;27.35;54.34;94634.44;4992280;28;20192;-80
2022/09/30 11:19:56;;;;;;;6.85;5.47;;;;;;;27.37;54.20;94636.81;4992879;28;20667;-83
2022/09/30 11:22:37;;;;;;;6.45;5.75;;;;;;;27.39;53.87;94645.25;4992360;28;20703;-84
2022/09/30 11:25:05;;;;;;;5.95;5.43;;;;;;;27.27;54.04;94619.88;4992197;28;20213;-81
2022/09/30 11:27:45;;;;;;;5.88;5.28;;;;;;;27.35;54.23;94631.00;4993223;28;20196;-83
2022/09/30 11:30:17;;;;;;;6.57;5.57;;;;;;;27.40;54.09;94642.38;4992623;28;20204;-83
2022/09/30 11:32:58;;;;;;;6.03;5.40;;;;;;;27.33;54.17;94628.66;4992056;28;20203;-81
2022/09/30 11:35:41;;;;;;;6.47;5.88;;;;;;;27.41;54.19;94641.31;4992369;28;20211;-81
2022/09/30 11:38:27;;;;;;;5.70;5.18;;;;;;;27.39;54.01;94634.75;4992700;28;20291;-79
2022/09/30 11:41:14;;;;;;;5.50;5.00;;;;;;;27.44;53.83;94647.94;4992251;28;20197;-85
2022/09/30 11:43:55;;;;;;;5.88;5.13;;;;;;;27.45;54.11;94646.88;4990291;28;20197;-79
2022/09/30 11:46:37;;;;;;;5.63;5.13;;;;;;;27.47;54.14;94640.38;4990201;28;20203;-81
2022/09/30 11:49:27;;;;;;;5.88;5.28;;;;;;;27.49;54.14;94648.00;4988966;28;20223;-80